FNMO

Namibe Airport

Namibe, Angola
METAR FNMO 161600Z 34015KT 9999 OVC014 23/17 Q1010
Observed Flight Rules
Dec-16 @ 16:00 UTC (6 hours ago) Marginal Visual Flight Rules
Wind Visibility Clouds
340° at 15 knots 10,000+ meters
  • Overcast at 1,400' AGL
Temperatures Readings
Current 23°C / 73°F
Dewpoint 17°C / 63°F
Humidity 69%
Altimeter 29.82" Hg
Pressure 1010 hPa
Elevation 64
METAR FNMO 161600Z 34015KT 9999 OVC014 23/17 Q1010
Observed Flight Rules
Dec-16 @ 16:00 UTC
(6 hours ago)
MVFR
Wind Visibility
340° at 15 knots 10,000+ meters
Clouds
  • Overcast at 1,400' AGL
Temperature Dewpoint
23°C / 73°F 17°C / 63°F
Humidity Altimeter Pressure
69% 29.82" Hg 1010 hPa